createdAt,value
2019-06-08T00:03:02.742Z,16.17
2019-06-08T00:07:08.469Z,16.01
2019-06-08T00:11:15.049Z,15.84
2019-06-08T00:15:22.338Z,15.47
2019-06-08T00:19:28.163Z,15.77
2019-06-08T00:23:34.073Z,16.67
2019-06-08T00:27:39.809Z,16.70
2019-06-08T00:31:45.509Z,15.61
2019-06-08T00:35:51.295Z,15.51
2019-06-08T00:39:57.032Z,15.32
2019-06-08T00:44:03.888Z,15.29
2019-06-08T00:48:09.740Z,15.23
2019-06-08T00:52:15.463Z,15.05
2019-06-08T00:56:21.565Z,15.24
2019-06-08T01:00:27.462Z,15.12
2019-06-08T01:04:33.148Z,15.04
2019-06-08T01:08:38.903Z,14.98
2019-06-08T01:12:44.867Z,15.01
2019-06-08T01:16:50.594Z,14.88
2019-06-08T01:20:56.317Z,14.84
2019-06-08T01:25:02.031Z,14.77
2019-06-08T01:29:08.840Z,14.82
2019-06-08T01:33:14.627Z,14.77
2019-06-08T01:37:24.859Z,14.77
2019-06-08T01:41:31.764Z,14.85
2019-06-08T01:45:37.631Z,15.31
2019-06-08T01:49:43.470Z,15.30
2019-06-08T01:53:49.201Z,15.00
2019-06-08T01:57:54.902Z,14.93
2019-06-08T02:02:00.631Z,15.03
2019-06-08T02:06:06.493Z,15.05
2019-06-08T02:10:12.589Z,14.89
2019-06-08T02:14:18.305Z,14.75
2019-06-08T02:18:36.578Z,14.68
2019-06-08T02:22:31.438Z,14.95
2019-06-08T02:26:37.224Z,14.72
2019-06-08T02:30:42.947Z,14.86
2019-06-08T02:34:48.662Z,14.66
2019-06-08T02:38:54.482Z,14.59
2019-06-08T02:43:00.262Z,14.63
2019-06-08T02:47:06.243Z,14.59
2019-06-08T02:51:13.590Z,14.62
2019-06-08T02:55:19.369Z,14.61
2019-06-08T02:59:29.353Z,14.76
2019-06-08T03:03:38.538Z,14.59
2019-06-08T03:07:48.069Z,14.72
2019-06-08T03:11:56.638Z,14.85
2019-06-08T03:16:02.653Z,14.65
2019-06-08T03:20:09.046Z,14.70
2019-06-08T03:24:14.764Z,14.64
2019-06-08T03:28:20.466Z,14.68
2019-06-08T03:32:26.415Z,14.57
2019-06-08T03:36:34.950Z,14.77
2019-06-08T03:40:40.550Z,14.79
2019-06-08T03:44:47.085Z,14.97
2019-06-08T03:48:52.830Z,14.95
2019-06-08T03:52:58.674Z,14.97
2019-06-08T03:57:04.461Z,15.17
2019-06-08T04:01:10.324Z,15.22
2019-06-08T04:05:16.080Z,15.20
2019-06-08T04:09:21.814Z,15.14
2019-06-08T04:13:27.514Z,15.00
2019-06-08T04:17:33.237Z,15.09
2019-06-08T04:21:40.332Z,14.96
2019-06-08T04:29:46.286Z,15.06
2019-06-08T04:33:52.127Z,14.90
2019-06-08T04:37:57.878Z,14.91
2019-06-08T04:42:03.596Z,14.91
2019-06-08T04:46:09.425Z,14.86
2019-06-08T04:50:22.634Z,14.90
2019-06-08T04:54:22.774Z,14.84
2019-06-08T04:58:28.623Z,14.84
2019-06-08T05:02:35.879Z,14.94
2019-06-08T05:06:42.977Z,15.03
2019-06-08T05:10:49.693Z,15.05
2019-06-08T05:14:55.517Z,15.24
2019-06-08T05:19:01.312Z,15.39
2019-06-08T05:23:07.048Z,15.39
2019-06-08T05:27:13.003Z,15.59
2019-06-08T05:31:18.789Z,15.68
2019-06-08T05:35:24.621Z,15.65
2019-06-08T05:39:30.401Z,15.79
2019-06-08T05:43:36.148Z,16.08
2019-06-08T05:47:41.920Z,15.53
2019-06-08T05:51:48.077Z,15.56
2019-06-08T05:55:53.784Z,15.38
2019-06-08T05:59:59.747Z,15.44
2019-06-08T06:04:05.611Z,15.69
2019-06-08T06:08:18.899Z,15.76
2019-06-08T06:12:18.870Z,16.18
2019-06-08T06:16:24.588Z,16.10
2019-06-08T06:20:30.419Z,15.79
2019-06-08T06:24:36.120Z,15.91
2019-06-08T06:28:41.908Z,15.73
2019-06-08T06:32:47.848Z,15.65
2019-06-08T06:36:53.555Z,15.93
2019-06-08T06:40:59.304Z,16.01
2019-06-08T06:45:08.563Z,15.89
2019-06-08T06:49:14.460Z,15.92
2019-06-08T06:53:20.196Z,16.37
2019-06-08T06:57:25.903Z,16.45
2019-06-08T07:01:32.563Z,16.84
2019-06-08T07:05:38.278Z,16.69
2019-06-08T07:09:44.374Z,17.01
2019-06-08T07:13:50.881Z,17.23
2019-06-08T07:17:58.561Z,17.63
2019-06-08T07:22:04.446Z,17.42
2019-06-08T07:26:10.167Z,17.66
2019-06-08T07:30:16.167Z,18.11
2019-06-08T07:34:21.885Z,18.73
2019-06-08T07:38:27.607Z,18.23
2019-06-08T07:42:33.614Z,17.89
2019-06-08T07:46:39.433Z,17.88
2019-06-08T07:50:46.199Z,18.66
2019-06-08T07:54:52.912Z,19.38
2019-06-08T07:58:59.062Z,18.91
2019-06-08T08:03:04.855Z,19.49
2019-06-08T08:07:10.599Z,19.77
2019-06-08T08:11:16.382Z,19.99
2019-06-08T08:15:22.372Z,20.59
2019-06-08T08:19:28.095Z,20.93
2019-06-08T08:23:34.921Z,21.12
2019-06-08T08:27:40.761Z,21.23
2019-06-08T08:31:47.990Z,21.15
2019-06-08T08:35:55.501Z,21.38
2019-06-08T08:40:01.647Z,21.42
2019-06-08T08:44:07.948Z,21.45
2019-06-08T08:48:25.545Z,22.36
2019-06-08T08:52:33.638Z,23.19
2019-06-08T08:56:29.679Z,24.11
2019-06-08T09:00:38.214Z,24.68
2019-06-08T09:04:42.867Z,23.99
2019-06-08T09:08:48.630Z,22.76
2019-06-08T09:12:56.434Z,23.52
2019-06-08T09:17:03.445Z,23.41
2019-06-08T09:21:10.217Z,24.10
2019-06-08T09:25:18.217Z,24.57
2019-06-08T09:29:23.556Z,24.26
2019-06-08T09:33:29.310Z,24.93
2019-06-08T09:37:37.560Z,24.04
2019-06-08T09:41:44.380Z,24.88
2019-06-08T09:45:50.128Z,24.59
2019-06-08T09:49:58.801Z,25.48
2019-06-08T09:54:06.224Z,26.50
2019-06-08T09:58:12.031Z,26.53
2019-06-08T10:02:18.384Z,26.80
2019-06-08T10:06:24.378Z,25.29
2019-06-08T10:10:30.130Z,24.72
2019-06-08T10:14:37.991Z,24.65
2019-06-08T10:18:43.516Z,23.89
2019-06-08T10:22:50.495Z,24.97
2019-06-08T10:26:57.186Z,26.25
2019-06-08T10:31:03.719Z,26.31
2019-06-08T10:35:11.019Z,24.88
2019-06-08T10:39:16.851Z,25.76
2019-06-08T10:43:22.632Z,26.48
2019-06-08T10:47:29.755Z,27.94
2019-06-08T10:51:40.190Z,29.04
2019-06-08T10:55:44.217Z,28.27
2019-06-08T10:59:49.925Z,28.10
2019-06-08T11:03:58.080Z,29.23
2019-06-08T11:08:04.483Z,30.06
2019-06-08T11:12:14.977Z,29.18
2019-06-08T11:16:18.725Z,28.21
2019-06-08T11:20:24.511Z,24.85
2019-06-08T11:24:30.248Z,26.18
2019-06-08T11:28:38.154Z,28.44
2019-06-08T11:32:43.387Z,29.12
2019-06-08T11:36:51.502Z,28.89
2019-06-08T11:40:57.516Z,29.34
2019-06-08T11:45:09.430Z,29.66
2019-06-08T11:53:14.919Z,28.01
2019-06-08T11:57:23.576Z,28.65
2019-06-08T12:01:29.317Z,30.60
2019-06-08T12:05:35.065Z,31.40
2019-06-08T12:09:40.782Z,29.65
2019-06-08T12:13:47.391Z,30.83
2019-06-08T12:17:53.299Z,30.32
2019-06-08T12:21:59.011Z,31.05
2019-06-08T12:26:06.109Z,30.80
2019-06-08T12:30:21.421Z,30.22
2019-06-08T12:34:19.662Z,29.91
2019-06-08T12:38:25.377Z,30.92
2019-06-08T12:42:31.169Z,28.51
2019-06-08T12:46:40.925Z,30.75
2019-06-08T12:50:44.300Z,29.92
2019-06-08T12:54:59.978Z,30.31
2019-06-08T12:58:57.888Z,30.73
2019-06-08T13:03:03.873Z,29.89
2019-06-08T13:07:10.506Z,29.40
2019-06-08T13:15:39.192Z,29.48
2019-06-08T13:19:44.990Z,29.50
2019-06-08T13:23:50.684Z,30.18
2019-06-08T13:27:58.309Z,29.04
2019-06-08T13:32:04.293Z,29.53
2019-06-08T13:36:10.328Z,30.48
2019-06-08T13:40:20.145Z,29.36
2019-06-08T13:44:24.425Z,30.84
2019-06-08T13:48:30.263Z,30.21
2019-06-08T13:52:38.166Z,29.08
2019-06-08T13:56:43.560Z,29.53
2019-06-08T14:00:49.673Z,29.61
2019-06-08T14:04:55.483Z,29.33
2019-06-08T14:09:01.194Z,29.41
2019-06-08T14:13:09.526Z,27.21
2019-06-08T14:17:15.477Z,27.31
2019-06-08T14:21:25.743Z,27.97
2019-06-08T14:25:30.118Z,27.62
2019-06-08T14:29:36.281Z,27.62
2019-06-08T14:33:42.087Z,27.50
2019-06-08T14:37:48.241Z,27.20
2019-06-08T14:41:54.113Z,27.47
2019-06-08T14:45:59.902Z,27.91
2019-06-08T14:50:08.077Z,27.86
2019-06-08T14:54:13.822Z,28.23
2019-06-08T14:58:23.976Z,28.23
2019-06-08T15:02:28.612Z,28.09
2019-06-08T15:06:34.507Z,27.85
2019-06-08T15:10:40.443Z,27.78
2019-06-08T15:14:47.739Z,27.47
2019-06-08T15:18:53.637Z,27.36
2019-06-08T15:22:59.624Z,27.30
2019-06-08T15:27:07.738Z,27.32
2019-06-08T15:31:12.740Z,27.11
2019-06-08T15:35:18.515Z,26.94
2019-06-08T15:39:25.538Z,26.76
2019-06-08T15:43:36.635Z,26.39
2019-06-08T15:47:40.819Z,26.17
2019-06-08T15:51:48.106Z,26.03
2019-06-08T15:55:54.046Z,26.01
2019-06-08T15:59:59.775Z,25.90
2019-06-08T16:04:05.575Z,25.87
2019-06-08T16:08:11.326Z,25.71
2019-06-08T16:12:17.073Z,25.70
2019-06-08T16:16:22.983Z,25.47
2019-06-08T16:20:29.536Z,25.37
2019-06-08T16:24:36.290Z,25.39
2019-06-08T16:28:42.127Z,25.44
2019-06-08T16:32:47.814Z,25.33
2019-06-08T16:36:53.620Z,25.33
2019-06-08T16:40:59.324Z,25.18
2019-06-08T16:45:10.625Z,25.16
2019-06-08T16:49:16.376Z,25.19
2019-06-08T16:53:24.205Z,25.07
2019-06-08T16:57:30.958Z,25.05
2019-06-08T17:01:36.934Z,25.02
2019-06-08T17:05:42.848Z,25.06
2019-06-08T17:09:48.575Z,24.90
2019-06-08T17:13:54.326Z,24.88
2019-06-08T17:18:00.068Z,24.92
2019-06-08T17:22:05.846Z,24.93
2019-06-08T17:26:11.695Z,24.91
2019-06-08T17:30:17.809Z,24.87
2019-06-08T17:34:23.704Z,24.71
2019-06-08T17:38:29.438Z,24.53
2019-06-08T17:42:35.194Z,24.56
2019-06-08T17:46:43.130Z,24.58
2019-06-08T17:50:48.856Z,24.58
2019-06-08T17:54:54.582Z,24.54
2019-06-08T17:59:00.326Z,24.49
2019-06-08T18:03:08.331Z,24.47
2019-06-08T18:07:14.194Z,24.41
2019-06-08T18:11:19.887Z,24.37
2019-06-08T18:15:27.917Z,24.30
2019-06-08T18:19:34.217Z,24.28
2019-06-08T18:23:40.858Z,24.29
2019-06-08T18:28:05.684Z,24.26
2019-06-08T18:31:55.145Z,24.20
2019-06-08T18:36:00.900Z,24.14
2019-06-08T18:40:09.961Z,24.16
2019-06-08T18:44:17.412Z,24.16
2019-06-08T18:48:24.399Z,24.15
2019-06-08T18:52:30.088Z,24.11
2019-06-08T18:56:38.699Z,24.06
2019-06-08T19:00:44.964Z,24.04
2019-06-08T19:04:50.754Z,23.99
2019-06-08T19:08:58.062Z,23.96
2019-06-08T19:13:06.176Z,23.92
2019-06-08T19:17:12.030Z,23.91
2019-06-08T19:21:17.953Z,23.89
2019-06-08T19:25:23.705Z,23.84
2019-06-08T19:29:29.755Z,23.88
2019-06-08T19:33:35.456Z,23.76
2019-06-08T19:37:41.917Z,23.69
2019-06-08T19:41:50.446Z,23.53
2019-06-08T19:45:58.065Z,23.52
2019-06-08T19:50:03.917Z,23.59
2019-06-08T19:54:09.616Z,23.63
2019-06-08T19:58:17.910Z,23.67
2019-06-08T20:02:22.768Z,23.59
2019-06-08T20:06:28.481Z,23.56
2019-06-08T20:10:34.168Z,23.52
2019-06-08T20:14:39.878Z,22.74
2019-06-08T20:18:48.216Z,21.67
2019-06-08T20:27:10.232Z,20.28
2019-06-08T20:31:15.326Z,19.95
2019-06-08T20:35:21.039Z,20.07
2019-06-08T20:39:27.322Z,20.15
2019-06-08T20:43:33.091Z,19.82
2019-06-08T20:47:39.213Z,19.70
2019-06-08T20:51:44.952Z,20.93
2019-06-08T20:55:52.054Z,21.43
2019-06-08T20:59:58.395Z,21.71
2019-06-08T21:04:04.173Z,22.18
2019-06-08T21:08:09.883Z,21.44
2019-06-08T21:12:17.658Z,20.11
2019-06-08T21:16:23.015Z,19.13
2019-06-08T21:20:28.961Z,19.17
2019-06-08T21:24:37.013Z,19.43
2019-06-08T21:28:42.151Z,19.09
2019-06-08T21:32:52.660Z,18.58
2019-06-08T21:36:56.454Z,18.36
2019-06-08T21:41:03.125Z,18.10
2019-06-08T21:45:09.884Z,18.20
2019-06-08T21:49:15.675Z,18.79
2019-06-08T21:53:22.016Z,20.63
2019-06-08T21:57:27.833Z,21.40
2019-06-08T22:01:34.319Z,21.32
2019-06-08T22:05:40.056Z,21.34
2019-06-08T22:09:48.005Z,20.69
2019-06-08T22:13:54.691Z,20.39
2019-06-08T22:18:01.495Z,20.12
2019-06-08T22:22:08.339Z,19.98
2019-06-08T22:26:14.264Z,20.84
2019-06-08T22:30:35.418Z,21.51
2019-06-08T22:34:28.154Z,21.84
2019-06-08T22:38:33.817Z,21.88
2019-06-08T22:42:39.663Z,21.64
2019-06-08T22:46:47.730Z,21.02
2019-06-08T22:50:53.794Z,20.24
2019-06-08T22:55:05.228Z,20.32
2019-06-08T22:59:09.252Z,20.43
2019-06-08T23:03:18.519Z,20.57
2019-06-08T23:07:29.852Z,20.33
2019-06-08T23:11:31.045Z,19.14
2019-06-08T23:15:37.901Z,18.73
2019-06-08T23:19:43.621Z,18.73
2019-06-08T23:23:49.378Z,18.79
2019-06-08T23:27:56.258Z,18.66
2019-06-08T23:32:04.336Z,17.88
2019-06-08T23:36:40.532Z,17.69
2019-06-08T23:40:18.241Z,18.35
2019-06-08T23:44:24.542Z,18.27
2019-06-08T23:48:30.296Z,19.62
2019-06-08T23:52:38.237Z,20.75
2019-06-08T23:56:44.469Z,20.98
